Time;durP1;ratioP1;P1;durP2;ratioP2;P2;SDS_P1;SDS_P2;PMS_P1;PMS_P2;Temp;Humidity;BMP_temperature;BMP_pressure;BME280_temperature;BME280_humidity;BME280_pressure;Samples;Min_cycle;Max_cycle;Signal;HPM_P1;HPM_P2
2023/07/02 00:00:07;;;;;;;9.60;8.60;;;26.00;63.90;;;;;;4799896;54;21003;-39
2023/07/02 00:05:08;;;;;;;8.85;8.05;;;26.00;63.90;;;;;;4971426;54;21576;-38
2023/07/02 00:10:11;;;;;;;9.30;8.27;;;26.00;63.90;;;;;;4830410;54;21094;-37
2023/07/02 00:15:12;;;;;;;9.52;8.63;;;26.00;63.90;;;;;;4901865;54;21027;-37
2023/07/02 00:20:17;;;;;;;9.18;8.27;;;26.00;64.00;;;;;;5097959;54;21081;-38
2023/07/02 00:25:20;;;;;;;9.65;8.75;;;26.00;63.90;;;;;;4949772;54;21535;-37
2023/07/02 00:30:21;;;;;;;9.18;8.25;;;26.00;64.00;;;;;;5064822;53;21189;-37
2023/07/02 00:35:22;;;;;;;9.00;8.10;;;26.00;64.00;;;;;;5028107;54;21127;-37
2023/07/02 00:40:23;;;;;;;8.38;7.57;;;26.00;64.10;;;;;;4829816;54;21481;-37
2023/07/02 00:45:26;;;;;;;9.25;8.35;;;26.00;64.00;;;;;;4857086;54;21478;-37
2023/07/02 00:50:28;;;;;;;9.05;8.15;;;26.00;64.10;;;;;;4860862;54;21676;-38
2023/07/02 00:55:29;;;;;;;9.45;8.20;;;26.00;64.10;;;;;;4962910;54;21568;-36
2023/07/02 01:00:30;;;;;;;9.07;8.18;;;26.00;64.10;;;;;;4796561;58;21015;-37
2023/07/02 01:05:35;;;;;;;8.50;7.70;;;26.00;64.10;;;;;;4963359;54;22491;-38
2023/07/02 01:10:36;;;;;;;10.07;8.65;;;26.00;64.10;;;;;;4796089;55;21493;-37
2023/07/02 01:15:38;;;;;;;8.75;7.95;;;26.00;64.10;;;;;;4904721;53;21493;-38
2023/07/02 01:20:39;;;;;;;8.82;7.93;;;26.00;64.10;;;;;;4808388;54;21054;-37
2023/07/02 01:25:40;;;;;;;9.20;8.32;;;26.00;64.20;;;;;;4806986;54;21021;-37
2023/07/02 01:30:41;;;;;;;9.32;7.90;;;26.00;64.10;;;;;;4802615;54;21010;-38
2023/07/02 01:35:43;;;;;;;8.98;8.18;;;26.00;64.10;;;;;;4842560;53;21095;-38
2023/07/02 01:40:43;;;;;;;9.30;8.40;;;26.00;64.20;;;;;;4901561;53;21003;-38
2023/07/02 01:45:45;;;;;;;8.45;7.65;;;26.00;64.10;;;;;;4909292;54;21003;-38
2023/07/02 01:50:46;;;;;;;8.75;7.95;;;26.00;64.30;;;;;;4952793;54;21114;-33
2023/07/02 01:55:46;;;;;;;9.50;8.60;;;26.00;64.20;;;;;;4894411;54;21094;-37
2023/07/02 02:00:47;;;;;;;7.85;7.15;;;26.00;64.20;;;;;;4871433;54;21007;-34
2023/07/02 02:05:48;;;;;;;8.32;7.57;;;26.00;64.20;;;;;;4806683;54;21125;-38
2023/07/02 02:10:49;;;;;;;8.50;7.70;;;26.00;64.20;;;;;;4847059;54;21130;-38
2023/07/02 02:15:50;;;;;;;8.55;7.75;;;26.00;64.20;;;;;;4796371;58;21456;-37
2023/07/02 02:20:51;;;;;;;8.40;7.60;;;26.00;64.30;;;;;;5026976;53;21055;-38
2023/07/02 02:25:52;;;;;;;9.20;8.23;;;26.00;64.20;;;;;;4800505;54;21010;-36
2023/07/02 02:30:52;;;;;;;8.43;7.53;;;26.00;64.20;;;;;;4865905;54;21138;-38
2023/07/02 02:35:53;;;;;;;8.27;7.47;;;26.00;64.20;;;;;;4808722;54;21487;-37
2023/07/02 02:40:54;;;;;;;8.55;7.72;;;26.00;64.50;;;;;;4987042;53;21086;-38
2023/07/02 02:45:55;;;;;;;8.80;8.00;;;26.00;64.30;;;;;;4860029;54;21059;-37
2023/07/02 02:50:56;;;;;;;9.05;8.15;;;26.00;64.20;;;;;;4795659;58;21608;-37
2023/07/02 02:55:57;;;;;;;8.18;7.40;;;26.00;64.30;;;;;;4796297;58;21059;-37
2023/07/02 03:00:58;;;;;;;8.32;7.55;;;25.90;64.20;;;;;;4883955;54;21079;-35
2023/07/02 03:05:58;;;;;;;8.07;7.28;;;26.00;63.70;;;;;;4796639;58;21070;-38
2023/07/02 03:10:59;;;;;;;7.57;6.87;;;25.90;64.20;;;;;;4899753;54;21095;-37
2023/07/02 03:16:00;;;;;;;8.27;7.47;;;26.00;64.30;;;;;;4876112;54;21505;-38
2023/07/02 03:21:01;;;;;;;7.78;7.07;;;26.00;64.30;;;;;;4828216;54;21003;-39
2023/07/02 03:26:02;;;;;;;8.38;7.57;;;25.90;64.30;;;;;;4887560;54;20995;-37
2023/07/02 03:31:03;;;;;;;7.72;6.97;;;25.90;64.20;;;;;;5055609;54;21025;-37
2023/07/02 03:36:04;;;;;;;8.48;7.62;;;25.90;64.20;;;;;;4967927;54;21556;-37
2023/07/02 03:41:05;;;;;;;7.80;7.10;;;25.90;64.20;;;;;;4887972;54;21014;-37
2023/07/02 03:46:05;;;;;;;7.78;7.00;;;25.90;64.20;;;;;;4901528;54;21636;-37
2023/07/02 03:51:07;;;;;;;7.53;6.72;;;25.90;64.20;;;;;;4942188;54;21118;-37
2023/07/02 03:56:08;;;;;;;8.20;7.37;;;25.90;64.80;;;;;;4940809;54;21493;-37
2023/07/02 04:01:09;;;;;;;7.40;6.70;;;25.90;64.20;;;;;;4797053;58;21023;-38
2023/07/02 04:06:09;;;;;;;7.97;7.22;;;25.90;64.10;;;;;;4823996;54;21023;-38
2023/07/02 04:11:11;;;;;;;8.00;7.22;;;25.90;64.20;;;;;;4882686;54;21478;-36
2023/07/02 04:16:12;;;;;;;7.95;7.15;;;25.90;64.20;;;;;;5044184;54;21063;-37
2023/07/02 04:21:13;;;;;;;8.05;7.25;;;25.90;64.20;;;;;;4915788;53;21019;-38
2023/07/02 04:26:16;;;;;;;7.75;7.05;;;25.90;64.20;;;;;;5010823;54;21022;-36
2023/07/02 04:31:17;;;;;;;7.50;6.80;;;26.00;64.30;;;;;;4826294;54;21023;-37
2023/07/02 04:36:18;;;;;;;7.87;7.10;;;25.90;64.20;;;;;;4831185;54;21090;-37
2023/07/02 04:41:19;;;;;;;8.10;7.30;;;25.90;64.20;;;;;;4854990;54;21066;-37
2023/07/02 04:46:20;;;;;;;7.95;7.15;;;25.90;64.10;;;;;;4835742;54;21587;-37
2023/07/02 04:51:21;;;;;;;7.87;7.07;;;25.90;64.30;;;;;;4857163;54;21007;-37
2023/07/02 04:56:22;;;;;;;9.20;7.70;;;25.90;64.10;;;;;;4874943;54;21513;-35
2023/07/02 05:01:23;;;;;;;8.02;7.30;;;25.90;64.20;;;;;;4901917;54;21071;-37
2023/07/02 05:06:24;;;;;;;8.25;7.45;;;25.90;64.30;;;;;;4823070;54;21003;-38
2023/07/02 05:11:25;;;;;;;8.48;7.68;;;25.90;64.20;;;;;;4839115;54;21533;-37
2023/07/02 05:16:25;;;;;;;8.15;7.28;;;25.90;64.20;;;;;;4796642;58;21520;-39
2023/07/02 05:21:26;;;;;;;8.57;7.78;;;25.90;64.20;;;;;;4796345;58;21042;-37
2023/07/02 05:26:27;;;;;;;9.38;7.78;;;25.90;64.20;;;;;;4857218;54;21038;-37
2023/07/02 05:31:28;;;;;;;7.85;7.03;;;25.90;64.20;;;;;;4998053;53;21141;-39
2023/07/02 05:36:29;;;;;;;9.80;7.82;;;25.90;64.20;;;;;;4827223;54;21118;-38
2023/07/02 05:41:30;;;;;;;9.10;8.25;;;25.90;64.20;;;;;;4950046;54;21086;-38
2023/07/02 05:46:31;;;;;;;8.75;7.82;;;25.90;64.20;;;;;;4823829;54;21477;-37
2023/07/02 05:51:32;;;;;;;9.30;7.95;;;25.90;64.20;;;;;;4901950;54;21023;-38
2023/07/02 05:56:33;;;;;;;8.73;7.43;;;25.90;64.20;;;;;;4932653;54;21031;-38
2023/07/02 06:01:33;;;;;;;8.00;7.20;;;25.90;64.20;;;;;;4919815;54;21086;-37
2023/07/02 06:06:34;;;;;;;8.68;7.85;;;25.90;64.20;;;;;;4796688;55;21524;-38
2023/07/02 06:11:38;;;;;;;8.10;7.37;;;26.00;64.30;;;;;;4860492;54;21353;-38
2023/07/02 06:16:39;;;;;;;8.13;7.40;;;25.90;64.20;;;;;;4862435;54;21007;-38
2023/07/02 06:21:40;;;;;;;7.90;7.18;;;25.90;64.20;;;;;;4799092;54;21007;-37
2023/07/02 06:26:41;;;;;;;8.50;7.60;;;25.90;64.20;;;;;;4796354;58;21465;-35
2023/07/02 06:31:42;;;;;;;9.15;7.90;;;25.90;64.20;;;;;;4795770;58;21014;-36
2023/07/02 06:36:43;;;;;;;8.00;7.20;;;25.90;64.10;;;;;;4821276;54;21513;-35
2023/07/02 06:41:44;;;;;;;9.23;8.32;;;25.90;64.10;;;;;;4826243;54;21074;-37
2023/07/02 06:46:46;;;;;;;8.50;7.60;;;25.90;64.20;;;;;;4804149;54;21656;-38
2023/07/02 06:51:47;;;;;;;8.88;7.97;;;25.90;64.10;;;;;;4796081;58;21485;-39
2023/07/02 06:56:48;;;;;;;9.27;8.38;;;25.90;64.10;;;;;;4861718;53;21328;-38
2023/07/02 07:01:50;;;;;;;9.02;8.13;;;25.90;64.10;;;;;;4796268;58;21465;-36
2023/07/02 07:06:51;;;;;;;8.40;7.60;;;25.90;64.20;;;;;;4917754;54;21103;-36
2023/07/02 07:11:51;;;;;;;8.65;7.75;;;25.90;64.10;;;;;;4912390;54;21620;-39
2023/07/02 07:16:52;;;;;;;8.90;8.00;;;25.90;64.10;;;;;;4829263;54;21015;-37
2023/07/02 07:21:53;;;;;;;8.50;7.62;;;25.90;64.10;;;;;;4804555;54;21022;-37
2023/07/02 07:26:55;;;;;;;8.95;8.05;;;25.90;64.20;;;;;;5063702;54;21019;-36
2023/07/02 07:31:57;;;;;;;8.70;7.90;;;25.90;64.10;;;;;;4795638;58;21529;-37
2023/07/02 07:36:58;;;;;;;8.82;7.95;;;25.90;64.20;;;;;;4910972;54;21548;-38
2023/07/02 07:41:59;;;;;;;8.85;7.95;;;25.90;64.20;;;;;;4867780;54;21047;-38
2023/07/02 07:47:00;;;;;;;8.50;7.70;;;26.00;64.80;;;;;;4809714;54;21082;-38
2023/07/02 07:52:03;;;;;;;8.85;7.97;;;26.00;64.10;;;;;;4795805;58;21043;-38
2023/07/02 07:57:05;;;;;;;8.98;8.07;;;26.00;64.20;;;;;;4847169;54;21545;-38
2023/07/02 08:02:06;;;;;;;9.07;8.18;;;26.00;64.30;;;;;;4848135;54;21082;-37
2023/07/02 08:07:08;;;;;;;9.65;8.68;;;25.90;64.20;;;;;;4900713;54;21544;-33
2023/07/02 08:12:10;;;;;;;9.20;8.30;;;26.00;64.20;;;;;;4796019;58;21022;-38
2023/07/02 08:17:11;;;;;;;8.55;7.65;;;26.00;64.20;;;;;;4957802;54;21079;-37
2023/07/02 08:22:12;;;;;;;8.85;7.95;;;26.00;64.30;;;;;;4826329;54;21486;-38
2023/07/02 08:27:15;;;;;;;8.90;8.02;;;26.00;64.20;;;;;;4840152;54;21055;-38
2023/07/02 08:32:18;;;;;;;8.90;8.00;;;26.00;64.20;;;;;;4995909;54;21038;-38
2023/07/02 08:37:20;;;;;;;8.65;7.85;;;26.00;64.20;;;;;;4858705;54;21588;-36
2023/07/02 08:42:21;;;;;;;8.88;7.97;;;26.00;64.20;;;;;;4941415;54;21082;-37
2023/07/02 08:47:22;;;;;;;9.18;8.05;;;26.00;64.30;;;;;;4970890;54;21070;-37
2023/07/02 08:52:23;;;;;;;9.27;8.38;;;26.00;64.30;;;;;;4869520;54;21039;-37
2023/07/02 08:57:24;;;;;;;8.70;7.80;;;26.00;64.20;;;;;;4809031;54;21490;-38
2023/07/02 09:02:34;;;;;;;9.30;8.27;;;26.00;64.20;;;;;;4953230;53;21033;-38
2023/07/02 09:07:45;;;;;;;9.23;8.32;;;26.00;64.20;;;;;;4856234;54;20995;-38
2023/07/02 09:12:46;;;;;;;8.98;8.07;;;26.00;64.30;;;;;;4940931;53;21545;-37
2023/07/02 09:17:47;;;;;;;9.10;8.15;;;26.00;64.20;;;;;;4811969;54;21026;-48
2023/07/02 09:22:54;;;;;;;9.95;8.95;;;26.00;64.30;;;;;;4834708;54;21536;-38
2023/07/02 09:27:55;;;;;;;10.60;9.57;;;26.00;64.30;;;;;;4841730;54;21508;-36
2023/07/02 09:33:07;;;;;;;9.90;8.90;;;26.00;64.30;;;;;;4885762;54;21039;-38
2023/07/02 09:38:08;;;;;;;10.80;9.70;;;26.00;64.40;;;;;;4814534;54;21548;-38
2023/07/02 09:43:11;;;;;;;10.18;9.18;;;26.00;64.30;;;;;;4909831;54;21066;-38
2023/07/02 09:48:16;;;;;;;10.07;8.80;;;26.00;64.30;;;;;;4893388;54;21038;-38
2023/07/02 09:53:17;;;;;;;9.80;8.80;;;26.00;64.30;;;;;;4796473;54;21075;-37
2023/07/02 09:58:18;;;;;;;10.40;9.30;;;26.00;64.30;;;;;;4796895;55;21002;-38
2023/07/02 10:03:29;;;;;;;10.35;9.35;;;26.00;64.30;;;;;;5081455;54;21082;-39
2023/07/02 10:08:30;;;;;;;10.05;8.70;;;26.00;64.40;;;;;;4796548;58;21485;-38
2023/07/02 10:13:31;;;;;;;10.65;9.65;;;26.00;64.40;;;;;;4860979;54;21097;-31
2023/07/02 10:18:32;;;;;;;19.83;17.05;;;26.00;64.30;;;;;;4817949;54;21002;-33
